Time;durP1;ratioP1;P1;durP2;ratioP2;P2;SDS_P1;SDS_P2;PMS_P1;PMS_P2;Temp;Humidity;BMP_temperature;BMP_pressure;BME280_temperature;BME280_humidity;BME280_pressure;Samples;Min_cycle;Max_cycle;Signal;HPM_P1;HPM_P2
2021/07/28 00:02:09;;;;;;;5.97;4.63;;;;;;;;;;5088922;28;20219;-64
2021/07/28 00:04:37;;;;;;;5.50;4.50;;;;;;;;;;5092637;28;20649;-63
2021/07/28 00:07:06;;;;;;;5.60;4.50;;;;;;;;;;5086254;28;20194;-64
2021/07/28 00:09:34;;;;;;;6.27;5.10;;;;;;;;;;5085237;28;20209;-64
2021/07/28 00:12:02;;;;;;;7.67;5.23;;;;;;;;;;5087087;28;20219;-63
2021/07/28 00:14:30;;;;;;;6.10;4.97;;;;;;;;;;5079447;28;20240;-63
2021/07/28 00:16:59;;;;;;;6.77;5.57;;;;;;;;;;5084151;28;20209;-64
2021/07/28 00:19:32;;;;;;;7.43;5.17;;;;;;;;;;5099121;28;20222;-64
2021/07/28 00:24:45;;;;;;;5.43;4.93;;;;;;;;;;5099443;28;20288;-62
2021/07/28 00:27:13;;;;;;;6.13;5.10;;;;;;;;;;5085741;28;20280;-62
2021/07/28 00:29:41;;;;;;;7.33;5.17;;;;;;;;;;5085946;28;20198;-62
2021/07/28 00:32:09;;;;;;;5.67;4.60;;;;;;;;;;5098638;28;20691;-64
2021/07/28 00:34:41;;;;;;;5.67;5.07;;;;;;;;;;5086000;28;20202;-62
2021/07/28 00:37:09;;;;;;;6.23;5.20;;;;;;;;;;5078834;28;20198;-64
2021/07/28 00:39:36;;;;;;;6.57;5.37;;;;;;;;;;5084294;28;20227;-63
2021/07/28 00:42:05;;;;;;;6.70;5.60;;;;;;;;;;5098732;28;20248;-62
2021/07/28 00:44:33;;;;;;;5.77;4.93;;;;;;;;;;5088240;28;20209;-62
2021/07/28 00:47:01;;;;;;;6.00;5.30;;;;;;;;;;5094994;28;20697;-61
2021/07/28 00:49:29;;;;;;;6.67;5.30;;;;;;;;;;5097536;28;20200;-62
2021/07/28 00:52:02;;;;;;;7.47;5.23;;;;;;;;;;5089699;28;20332;-62
2021/07/28 00:54:30;;;;;;;8.77;5.43;;;;;;;;;;5095478;28;20208;-62
2021/07/28 00:56:59;;;;;;;6.57;5.43;;;;;;;;;;5081341;28;20211;-62
2021/07/28 00:59:27;;;;;;;8.27;6.20;;;;;;;;;;5084722;28;20222;-62
2021/07/28 01:01:55;;;;;;;9.07;6.40;;;;;;;;;;5098517;28;20250;-62
2021/07/28 01:04:23;;;;;;;7.20;5.70;;;;;;;;;;5083344;28;20607;-62
2021/07/28 01:06:51;;;;;;;8.27;6.23;;;;;;;;;;5090976;28;20203;-63
2021/07/28 01:09:20;;;;;;;9.00;6.60;;;;;;;;;;5088246;28;20198;-64
2021/07/28 01:11:49;;;;;;;7.13;6.17;;;;;;;;;;5092728;28;20288;-61
2021/07/28 01:14:17;;;;;;;6.73;5.90;;;;;;;;;;5077760;28;20202;-64
2021/07/28 01:16:47;;;;;;;9.90;6.23;;;;;;;;;;5077801;28;20206;-62
2021/07/28 01:19:17;;;;;;;8.93;5.93;;;;;;;;;;5087984;28;20321;-64
2021/07/28 01:21:46;;;;;;;9.27;5.87;;;;;;;;;;5085610;28;20221;-63
2021/07/28 01:24:15;;;;;;;7.07;6.37;;;;;;;;;;5097067;28;20207;-63
2021/07/28 01:26:44;;;;;;;7.93;6.00;;;;;;;;;;5098493;28;20209;-64
2021/07/28 01:29:12;;;;;;;8.67;6.00;;;;;;;;;;5096730;28;20227;-62
2021/07/28 01:31:40;;;;;;;7.83;6.20;;;;;;;;;;5084229;28;20239;-62
2021/07/28 01:34:09;;;;;;;10.63;6.27;;;;;;;;;;5089264;28;20203;-62
2021/07/28 01:36:37;;;;;;;8.77;6.13;;;;;;;;;;5082617;28;20212;-63
2021/07/28 01:39:05;;;;;;;7.20;6.40;;;;;;;;;;5098427;28;20212;-64
2021/07/28 01:41:35;;;;;;;9.03;6.47;;;;;;;;;;5097165;28;20240;-64
2021/07/28 01:44:03;;;;;;;10.03;6.97;;;;;;;;;;5093661;28;20202;-64
2021/07/28 01:46:31;;;;;;;8.27;6.30;;;;;;;;;;5087651;28;20209;-62
2021/07/28 01:48:59;;;;;;;7.93;5.90;;;;;;;;;;5090940;28;20202;-62
2021/07/28 01:51:27;;;;;;;8.57;6.10;;;;;;;;;;5080555;28;20226;-60
2021/07/28 01:53:55;;;;;;;7.73;5.20;;;;;;;;;;5089225;28;20285;-60
2021/07/28 01:56:33;;;;;;;8.50;6.53;;;;;;;;;;5092806;28;20202;-60
2021/07/28 01:59:03;;;;;;;8.53;6.27;;;;;;;;;;5084529;28;20206;-61
2021/07/28 02:01:30;;;;;;;10.10;6.43;;;;;;;;;;5087972;28;20232;-62
2021/07/28 02:03:59;;;;;;;11.40;6.17;;;;;;;;;;5091386;28;20262;-62
2021/07/28 02:06:27;;;;;;;7.27;6.07;;;;;;;;;;5090840;28;20678;-62
2021/07/28 02:08:54;;;;;;;7.17;5.80;;;;;;;;;;5097029;28;20207;-62
2021/07/28 02:11:22;;;;;;;7.37;6.03;;;;;;;;;;5080429;28;20217;-62
2021/07/28 02:13:50;;;;;;;11.00;6.53;;;;;;;;;;5084970;28;20202;-62
2021/07/28 02:16:20;;;;;;;9.00;6.13;;;;;;;;;;5083422;28;20214;-63
2021/07/28 02:18:48;;;;;;;9.10;5.80;;;;;;;;;;5092127;28;20224;-62
2021/07/28 02:21:16;;;;;;;6.70;5.83;;;;;;;;;;5077271;28;20230;-62
2021/07/28 02:23:44;;;;;;;7.57;5.40;;;;;;;;;;5088140;28;20237;-63
2021/07/28 02:26:12;;;;;;;10.10;6.87;;;;;;;;;;5094530;28;20211;-62
2021/07/28 02:28:41;;;;;;;8.47;5.77;;;;;;;;;;5092942;28;20206;-63
2021/07/28 02:31:09;;;;;;;6.53;5.60;;;;;;;;;;5088838;28;20551;-63
2021/07/28 02:33:38;;;;;;;7.40;6.10;;;;;;;;;;5091813;28;20198;-62
2021/07/28 02:36:06;;;;;;;8.67;5.97;;;;;;;;;;5077166;28;20208;-63
2021/07/28 02:38:34;;;;;;;8.73;6.20;;;;;;;;;;5094673;28;20691;-63
2021/07/28 02:41:02;;;;;;;8.53;5.97;;;;;;;;;;5083674;28;20234;-63
2021/07/28 02:43:30;;;;;;;8.10;6.27;;;;;;;;;;5078281;28;20203;-62
2021/07/28 02:45:58;;;;;;;6.47;5.60;;;;;;;;;;5077241;28;20289;-63
2021/07/28 02:48:26;;;;;;;8.03;6.13;;;;;;;;;;5091317;28;20205;-62
2021/07/28 02:50:55;;;;;;;8.93;5.60;;;;;;;;;;5090531;28;20223;-63
2021/07/28 02:53:24;;;;;;;6.93;5.77;;;;;;;;;;5086603;28;20204;-62
2021/07/28 02:55:52;;;;;;;8.13;5.80;;;;;;;;;;5088981;28;20205;-63
2021/07/28 02:58:20;;;;;;;10.40;7.03;;;;;;;;;;5093784;28;20293;-62
2021/07/28 03:00:48;;;;;;;7.07;5.53;;;;;;;;;;5086013;28;20226;-67
2021/07/28 03:03:16;;;;;;;7.33;6.37;;;;;;;;;;5095941;28;20229;-62
2021/07/28 03:05:44;;;;;;;7.63;5.87;;;;;;;;;;5083289;28;20205;-62
2021/07/28 03:08:13;;;;;;;7.23;5.93;;;;;;;;;;5096541;28;20579;-62
2021/07/28 03:10:41;;;;;;;7.03;6.17;;;;;;;;;;5077489;28;20194;-62
2021/07/28 03:13:09;;;;;;;8.70;6.10;;;;;;;;;;5084909;28;20929;-62
2021/07/28 03:15:37;;;;;;;7.63;6.23;;;;;;;;;;5079513;28;20281;-62
2021/07/28 03:18:05;;;;;;;8.77;6.10;;;;;;;;;;5090090;28;20213;-62
2021/07/28 03:20:33;;;;;;;9.13;6.57;;;;;;;;;;5098820;28;20237;-62
2021/07/28 03:23:01;;;;;;;7.30;5.87;;;;;;;;;;5089740;28;20225;-62
2021/07/28 03:25:30;;;;;;;8.30;5.93;;;;;;;;;;5086687;28;20201;-62
2021/07/28 03:27:58;;;;;;;7.17;5.50;;;;;;;;;;5101070;28;20212;-62
2021/07/28 03:30:26;;;;;;;11.03;6.10;;;;;;;;;;5086356;28;20280;-62
2021/07/28 03:32:54;;;;;;;9.00;6.13;;;;;;;;;;5099436;28;20217;-62
2021/07/28 03:35:22;;;;;;;8.07;6.10;;;;;;;;;;5089311;28;20649;-62
2021/07/28 03:37:50;;;;;;;7.80;6.53;;;;;;;;;;5089848;28;20202;-62
2021/07/28 03:40:18;;;;;;;9.73;6.77;;;;;;;;;;5084567;28;20561;-62
2021/07/28 03:42:48;;;;;;;9.60;6.70;;;;;;;;;;5096766;28;21792;-61
2021/07/28 03:45:16;;;;;;;7.03;6.00;;;;;;;;;;5080498;28;20198;-62
2021/07/28 03:47:44;;;;;;;10.13;6.70;;;;;;;;;;5099597;28;20202;-62
2021/07/28 03:50:12;;;;;;;7.43;6.03;;;;;;;;;;5087829;28;20265;-62
2021/07/28 03:52:40;;;;;;;7.70;6.50;;;;;;;;;;5099125;28;20228;-61
2021/07/28 03:55:10;;;;;;;7.77;5.90;;;;;;;;;;5087134;28;20202;-60
2021/07/28 03:57:38;;;;;;;7.33;5.87;;;;;;;;;;5100125;28;20237;-61
2021/07/28 04:00:08;;;;;;;11.07;5.20;;;;;;;;;;5086465;28;20284;-60
2021/07/28 04:02:36;;;;;;;7.93;6.03;;;;;;;;;;5100041;28;20229;-62
2021/07/28 04:05:05;;;;;;;7.60;6.17;;;;;;;;;;5084235;28;20285;-61
2021/07/28 04:07:33;;;;;;;7.37;6.17;;;;;;;;;;5100161;28;20748;-62
2021/07/28 04:10:01;;;;;;;8.87;6.57;;;;;;;;;;5086145;28;20202;-62
2021/07/28 04:12:29;;;;;;;7.43;6.67;;;;;;;;;;5096329;28;21092;-63
2021/07/28 04:14:57;;;;;;;10.80;5.60;;;;;;;;;;5082444;28;20198;-63
2021/07/28 04:17:26;;;;;;;6.10;5.50;;;;;;;;;;5108983;28;20279;-64
2021/07/28 04:19:55;;;;;;;7.03;5.47;;;;;;;;;;5111019;28;20233;-63
2021/07/28 04:22:23;;;;;;;7.50;5.70;;;;;;;;;;5085184;28;20569;-63
2021/07/28 04:24:51;;;;;;;7.17;5.10;;;;;;;;;;5099017;28;20211;-63
2021/07/28 04:27:19;;;;;;;7.77;5.30;;;;;;;;;;5085712;28;20286;-63
2021/07/28 04:29:47;;;;;;;10.80;5.70;;;;;;;;;;5085747;28;20211;-63
2021/07/28 04:32:15;;;;;;;7.83;6.30;;;;;;;;;;5099401;28;20278;-63
2021/07/28 04:34:44;;;;;;;9.60;6.00;;;;;;;;;;5085733;28;20202;-63
2021/07/28 04:37:12;;;;;;;9.00;6.30;;;;;;;;;;5081794;28;20206;-63
2021/07/28 04:39:40;;;;;;;7.53;6.33;;;;;;;;;;5091481;28;20201;-63
2021/07/28 04:42:08;;;;;;;9.03;6.03;;;;;;;;;;5097657;28;20312;-63
2021/07/28 04:44:36;;;;;;;8.77;6.77;;;;;;;;;;5080204;28;20588;-64
2021/07/28 04:47:05;;;;;;;8.07;6.33;;;;;;;;;;5093378;28;20663;-63
2021/07/28 04:49:33;;;;;;;7.37;6.33;;;;;;;;;;5080904;28;20733;-63
2021/07/28 04:52:02;;;;;;;10.97;6.33;;;;;;;;;;5097185;28;20213;-63
2021/07/28 04:54:30;;;;;;;8.57;6.03;;;;;;;;;;5096061;28;20201;-64
2021/07/28 04:56:58;;;;;;;8.13;5.70;;;;;;;;;;5088819;28;20198;-64
2021/07/28 04:59:26;;;;;;;8.43;5.77;;;;;;;;;;5080833;28;20198;-64
2021/07/28 05:01:54;;;;;;;7.87;7.07;;;;;;;;;;5093499;28;20221;-62
2021/07/28 05:04:22;;;;;;;10.20;6.07;;;;;;;;;;5097493;28;20205;-63
2021/07/28 05:06:50;;;;;;;9.27;6.83;;;;;;;;;;5115981;28;20201;-63
2021/07/28 05:09:20;;;;;;;8.93;6.57;;;;;;;;;;5077610;28;20220;-63
2021/07/28 05:11:47;;;;;;;7.77;6.10;;;;;;;;;;5094271;28;20213;-63
2021/07/28 05:14:15;;;;;;;7.17;6.43;;;;;;;;;;5082325;28;20207;-63
2021/07/28 05:16:43;;;;;;;9.13;6.50;;;;;;;;;;5079068;28;20566;-63
2021/07/28 05:19:11;;;;;;;9.07;6.30;;;;;;;;;;5095449;28;20202;-63
2021/07/28 05:21:39;;;;;;;7.47;6.20;;;;;;;;;;5084283;28;20226;-63
2021/07/28 05:24:07;;;;;;;10.83;6.43;;;;;;;;;;5098518;28;20292;-63
2021/07/28 05:26:37;;;;;;;8.00;7.13;;;;;;;;;;5097719;28;20209;-63
2021/07/28 05:29:05;;;;;;;10.20;6.77;;;;;;;;;;5091865;28;20198;-63
2021/07/28 05:31:33;;;;;;;10.50;7.37;;;;;;;;;;5077934;28;20237;-63
2021/07/28 05:34:01;;;;;;;6.90;6.13;;;;;;;;;;5078839;28;20248;-63
2021/07/28 05:36:29;;;;;;;8.10;6.33;;;;;;;;;;5095042;28;20202;-63
2021/07/28 05:38:57;;;;;;;6.97;6.30;;;;;;;;;;5098829;28;20228;-63
2021/07/28 05:41:25;;;;;;;9.70;6.43;;;;;;;;;;5095056;28;20277;-63
2021/07/28 05:43:54;;;;;;;8.13;6.40;;;;;;;;;;5090201;28;20273;-63
2021/07/28 05:46:22;;;;;;;8.87;6.10;;;;;;;;;;5095430;28;20202;-63
2021/07/28 05:48:50;;;;;;;7.87;6.30;;;;;;;;;;5097109;28;20227;-63
2021/07/28 05:51:18;;;;;;;8.33;6.33;;;;;;;;;;5098893;28;20304;-63
2021/07/28 05:53:46;;;;;;;7.17;5.57;;;;;;;;;;5088271;28;20203;-63
2021/07/28 05:56:14;;;;;;;5.33;4.83;;;;;;;;;;5094315;28;20560;-62
2021/07/28 05:58:42;;;;;;;6.87;5.30;;;;;;;;;;5094852;28;20691;-64
2021/07/28 06:01:11;;;;;;;7.30;5.80;;;;;;;;;;5093964;28;20672;-61
2021/07/28 06:03:39;;;;;;;8.40;5.43;;;;;;;;;;5096332;28;20248;-62
2021/07/28 06:06:07;;;;;;;7.73;5.97;;;;;;;;;;5103297;28;20212;-64
2021/07/28 06:08:35;;;;;;;10.90;6.33;;;;;;;;;;5097209;28;20300;-61
2021/07/28 06:11:06;;;;;;;6.63;5.90;;;;;;;;;;5096840;28;20204;-62
2021/07/28 06:13:34;;;;;;;6.57;5.80;;;;;;;;;;5074703;28;20625;-63
2021/07/28 06:16:02;;;;;;;7.40;6.20;;;;;;;;;;5087848;28;20208;-63
2021/07/28 06:18:33;;;;;;;7.03;5.73;;;;;;;;;;5094304;28;20198;-63
2021/07/28 06:21:02;;;;;;;8.93;5.93;;;;;;;;;;5088037;28;20235;-62
2021/07/28 06:23:30;;;;;;;8.37;5.97;;;;;;;;;;5097574;28;20225;-63
2021/07/28 06:25:58;;;;;;;11.97;8.97;;;;;;;;;;5089598;28;20739;-63
2021/07/28 06:28:26;;;;;;;7.67;6.30;;;;;;;;;;5098722;28;20220;-62
2021/07/28 06:30:55;;;;;;;10.07;6.37;;;;;;;;;;5090910;28;20280;-62
2021/07/28 06:33:23;;;;;;;9.77;6.53;;;;;;;;;;5096782;28;20602;-62
2021/07/28 06:35:53;;;;;;;9.03;6.23;;;;;;;;;;5102000;28;20671;-63
2021/07/28 06:38:21;;;;;;;7.40;5.70;;;;;;;;;;5102461;28;20212;-62
2021/07/28 06:40:49;;;;;;;7.63;5.43;;;;;;;;;;5093437;28;20328;-63
2021/07/28 06:43:22;;;;;;;6.33;5.70;;;;;;;;;;5082718;28;20269;-62
2021/07/28 06:45:49;;;;;;;7.17;5.40;;;;;;;;;;5084214;28;20583;-62
2021/07/28 06:48:18;;;;;;;9.40;6.77;;;;;;;;;;5098123;28;20245;-62
2021/07/28 06:50:46;;;;;;;7.77;5.47;;;;;;;;;;5089568;28;20202;-62
2021/07/28 06:53:15;;;;;;;6.27;5.40;;;;;;;;;;5080795;28;20219;-63
2021/07/28 06:55:43;;;;;;;7.87;5.87;;;;;;;;;;5100700;28;20211;-62
2021/07/28 06:58:11;;;;;;;6.00;5.30;;;;;;;;;;5098784;28;20216;-62
2021/07/28 07:00:39;;;;;;;7.57;6.00;;;;;;;;;;5087567;28;20325;-62
2021/07/28 07:03:07;;;;;;;6.50;5.40;;;;;;;;;;5089561;28;20222;-63
2021/07/28 07:05:35;;;;;;;6.83;5.30;;;;;;;;;;5092735;28;20194;-64
2021/07/28 07:08:03;;;;;;;7.47;5.53;;;;;;;;;;5107518;28;20595;-63
2021/07/28 07:10:33;;;;;;;7.93;5.23;;;;;;;;;;5105901;28;20281;-63
2021/07/28 07:13:01;;;;;;;6.73;5.80;;;;;;;;;;5091502;28;20223;-62
2021/07/28 07:15:28;;;;;;;6.53;5.83;;;;;;;;;;5083711;28;20207;-63
2021/07/28 07:17:56;;;;;;;8.10;6.60;;;;;;;;;;5100772;28;20207;-63
2021/07/28 07:20:24;;;;;;;6.60;5.67;;;;;;;;;;5086340;28;20211;-63
2021/07/28 07:22:52;;;;;;;7.83;5.90;;;;;;;;;;5093696;28;20314;-63
2021/07/28 07:25:20;;;;;;;6.67;5.43;;;;;;;;;;5085578;28;20674;-63
2021/07/28 07:27:50;;;;;;;7.03;6.27;;;;;;;;;;5082564;28;20726;-63
2021/07/28 07:30:18;;;;;;;7.57;6.63;;;;;;;;;;5102277;28;20205;-64
2021/07/28 07:33:36;;;;;;;7.13;5.67;;;;;;;;;;5100382;28;20217;-63
2021/07/28 07:35:34;;;;;;;7.17;6.37;;;;;;;;;;5106621;28;20201;-62
2021/07/28 07:38:02;;;;;;;7.83;6.30;;;;;;;;;;5106631;28;20207;-62
2021/07/28 07:40:30;;;;;;;8.07;5.87;;;;;;;;;;5100096;28;20238;-63
2021/07/28 07:42:59;;;;;;;7.63;6.40;;;;;;;;;;5083967;28;20228;-63
2021/07/28 07:45:27;;;;;;;7.00;5.70;;;;;;;;;;5093704;28;20207;-63
2021/07/28 07:47:55;;;;;;;9.27;6.57;;;;;;;;;;5100735;28;20293;-63
2021/07/28 07:50:23;;;;;;;9.67;6.43;;;;;;;;;;5105843;28;20201;-64
2021/07/28 07:52:51;;;;;;;8.33;6.60;;;;;;;;;;5109590;28;20281;-65
2021/07/28 07:55:19;;;;;;;7.90;6.63;;;;;;;;;;5100307;28;20204;-64
2021/07/28 07:57:47;;;;;;;9.33;6.67;;;;;;;;;;5100007;28;20212;-64
2021/07/28 08:00:17;;;;;;;9.43;6.03;;;;;;;;;;5110304;28;20218;-65
2021/07/28 08:02:45;;;;;;;8.63;7.00;;;;;;;;;;5099887;28;20353;-64
2021/07/28 08:05:13;;;;;;;8.50;6.57;;;;;;;;;;5101629;28;20215;-63
2021/07/28 08:07:41;;;;;;;8.43;7.10;;;;;;;;;;5099736;28;20203;-63
2021/07/28 08:10:09;;;;;;;7.90;7.10;;;;;;;;;;5100100;28;20203;-63
2021/07/28 08:12:37;;;;;;;8.07;6.60;;;;;;;;;;5099617;28;20562;-63
2021/07/28 08:15:06;;;;;;;9.40;6.77;;;;;;;;;;5099456;28;20660;-63
2021/07/28 08:17:35;;;;;;;9.23;7.00;;;;;;;;;;5099342;28;20205;-63
2021/07/28 08:20:04;;;;;;;11.00;6.77;;;;;;;;;;5099762;28;20209;-63
2021/07/28 08:22:32;;;;;;;8.50;7.00;;;;;;;;;;5096080;28;20232;-63
2021/07/28 08:25:00;;;;;;;7.90;6.87;;;;;;;;;;5089499;28;20664;-63
2021/07/28 08:27:28;;;;;;;8.33;7.47;;;;;;;;;;5099287;28;20232;-64
2021/07/28 08:29:57;;;;;;;11.43;7.90;;;;;;;;;;5099281;28;20235;-63
2021/07/28 08:32:25;;;;;;;10.83;7.60;;;;;;;;;;5099057;28;20223;-63
2021/07/28 08:34:55;;;;;;;8.00;6.80;;;;;;;;;;5099144;28;20206;-63
2021/07/28 08:37:23;;;;;;;10.50;8.50;;;;;;;;;;5099037;28;20713;-63
2021/07/28 08:39:51;;;;;;;6.77;5.93;;;;;;;;;;5089730;28;20208;-63
2021/07/28 08:42:19;;;;;;;11.83;7.03;;;;;;;;;;5098906;28;20248;-63
2021/07/28 08:44:48;;;;;;;11.83;7.87;;;;;;;;;;5099054;28;20229;-63
2021/07/28 08:47:18;;;;;;;8.90;7.40;;;;;;;;;;5099257;28;20216;-63
2021/07/28 08:49:46;;;;;;;8.23;7.43;;;;;;;;;;5098798;28;20571;-63
2021/07/28 08:52:17;;;;;;;8.67;7.33;;;;;;;;;;5099017;28;20270;-64
2021/07/28 08:54:45;;;;;;;9.67;7.60;;;;;;;;;;5098513;28;20657;-64
2021/07/28 08:57:14;;;;;;;7.20;6.50;;;;;;;;;;5091400;28;20290;-63
2021/07/28 08:59:42;;;;;;;8.20;6.97;;;;;;;;;;5100402;28;20207;-63
2021/07/28 09:02:10;;;;;;;8.90;6.93;;;;;;;;;;5097577;28;20271;-63
2021/07/28 09:04:40;;;;;;;10.20;7.83;;;;;;;;;;5098108;28;20247;-64
2021/07/28 09:07:15;;;;;;;9.63;6.70;;;;;;;;;;5085041;28;20210;-63
2021/07/28 09:09:51;;;;;;;7.80;6.03;;;;;;;;;;5098531;28;20207;-63
2021/07/28 09:12:19;;;;;;;7.87;6.43;;;;;;;;;;5098689;28;20284;-63
2021/07/28 09:14:55;;;;;;;10.27;6.60;;;;;;;;;;5096875;28;20208;-63
2021/07/28 09:17:26;;;;;;;7.43;6.00;;;;;;;;;;5098678;28;20288;-63
2021/07/28 09:19:55;;;;;;;8.57;6.57;;;;;;;;;;5098582;28;20210;-63
2021/07/28 09:22:32;;;;;;;8.60;6.70;;;;;;;;;;5098225;28;20226;-63
2021/07/28 09:25:10;;;;;;;10.10;6.57;;;;;;;;;;5098215;28;20264;-63
2021/07/28 09:27:38;;;;;;;9.23;7.17;;;;;;;;;;5097939;28;20572;-63
2021/07/28 09:30:07;;;;;;;10.80;7.17;;;;;;;;;;5094433;28;20685;-63
2021/07/28 09:32:35;;;;;;;10.10;7.00;;;;;;;;;;5093042;28;20295;-63
2021/07/28 09:35:03;;;;;;;13.23;6.07;;;;;;;;;;5101431;28;20667;-62
2021/07/28 09:37:38;;;;;;;8.30;6.13;;;;;;;;;;5098361;28;20202;-62
2021/07/28 09:40:20;;;;;;;8.70;6.27;;;;;;;;;;5090408;28;20228;-62
2021/07/28 09:42:48;;;;;;;9.47;7.03;;;;;;;;;;5103548;28;20324;-63
2021/07/28 09:45:27;;;;;;;7.70;5.60;;;;;;;;;;5106525;28;20219;-62
2021/07/28 09:47:56;;;;;;;7.47;6.10;;;;;;;;;;5102351;28;20257;-65
2021/07/28 09:50:26;;;;;;;7.67;6.07;;;;;;;;;;5096132;28;20206;-65
2021/07/28 09:53:07;;;;;;;7.30;5.70;;;;;;;;;;5098001;28;20238;-65
2021/07/28 09:55:45;;;;;;;10.00;6.87;;;;;;;;;;5097938;28;20194;-65
2021/07/28 09:58:14;;;;;;;7.87;5.90;;;;;;;;;;5097515;28;20289;-63
2021/07/28 10:00:42;;;;;;;9.23;6.67;;;;;;;;;;5087054;28;20290;-64
2021/07/28 10:03:10;;;;;;;6.90;6.20;;;;;;;;;;5095442;28;20229;-61
2021/07/28 10:05:40;;;;;;;7.07;6.27;;;;;;;;;;5085891;28;20578;-62
2021/07/28 10:08:08;;;;;;;7.80;5.60;;;;;;;;;;5094831;28;20290;-61
2021/07/28 10:10:38;;;;;;;6.60;5.40;;;;;;;;;;5083197;28;20675;-61
2021/07/28 10:13:06;;;;;;;5.80;5.27;;;;;;;;;;5091956;28;20309;-61
2021/07/28 10:15:34;;;;;;;6.30;5.60;;;;;;;;;;5081325;28;20230;-61
2021/07/28 10:18:03;;;;;;;8.03;5.77;;;;;;;;;;5093769;28;20285;-61
2021/07/28 10:20:31;;;;;;;9.00;5.80;;;;;;;;;;5088625;28;20284;-61
2021/07/28 10:22:59;;;;;;;8.17;6.10;;;;;;;;;;5087174;28;20227;-61
2021/07/28 10:25:28;;;;;;;5.80;5.30;;;;;;;;;;5087701;28;20342;-61
2021/07/28 10:27:57;;;;;;;6.70;5.30;;;;;;;;;;5101625;28;20201;-61
2021/07/28 10:30:26;;;;;;;7.20;6.50;;;;;;;;;;5102795;28;20276;-61
2021/07/28 10:32:53;;;;;;;6.00;5.13;;;;;;;;;;5092301;28;20711;-62
2021/07/28 10:35:25;;;;;;;6.40;5.80;;;;;;;;;;5091166;28;20198;-61
2021/07/28 10:37:53;;;;;;;6.63;5.77;;;;;;;;;;5092017;28;20545;-61
2021/07/28 10:40:48;;;;;;;9.00;6.03;;;;;;;;;;5094028;28;20687;-61
2021/07/28 10:43:17;;;;;;;6.80;5.63;;;;;;;;;;5080834;28;20232;-61
2021/07/28 10:45:55;;;;;;;6.07;5.33;;;;;;;;;;5084602;28;20218;-61
2021/07/28 10:48:42;;;;;;;6.33;5.50;;;;;;;;;;5097201;28;20211;-63
2021/07/28 10:51:10;;;;;;;8.33;5.67;;;;;;;;;;5090386;28;20688;-61
2021/07/28 10:53:48;;;;;;;5.57;5.07;;;;;;;;;;5087444;28;20194;-61
2021/07/28 10:56:16;;;;;;;6.53;4.83;;;;;;;;;;5095670;28;20601;-61
2021/07/28 10:58:45;;;;;;;8.23;5.23;;;;;;;;;;5087131;28;20210;-61
2021/07/28 11:01:13;;;;;;;5.60;5.10;;;;;;;;;;5100656;28;20228;-61
2021/07/28 11:03:41;;;;;;;7.83;4.90;;;;;;;;;;5091804;28;20261;-61
2021/07/28 11:06:15;;;;;;;4.43;4.03;;;;;;;;;;5121110;28;20224;-61
2021/07/28 11:08:43;;;;;;;5.87;4.33;;;;;;;;;;5094600;28;20631;-62
2021/07/28 11:11:20;;;;;;;5.67;5.07;;;;;;;;;;5099795;28;20204;-61
2021/07/28 11:13:49;;;;;;;6.03;4.67;;;;;;;;;;5094802;28;20204;-63
2021/07/28 11:16:18;;;;;;;5.43;4.57;;;;;;;;;;5080232;28;20206;-63
2021/07/28 11:18:46;;;;;;;5.40;4.20;;;;;;;;;;5092014;28;20282;-61
2021/07/28 11:21:15;;;;;;;7.47;5.07;;;;;;;;;;5093559;28;20216;-61
2021/07/28 11:23:44;;;;;;;4.60;4.20;;;;;;;;;;5084432;28;20199;-61
2021/07/28 11:26:14;;;;;;;5.33;4.60;;;;;;;;;;5092863;28;20228;-61
2021/07/28 11:28:43;;;;;;;4.10;3.70;;;;;;;;;;5086694;28;20216;-61
2021/07/28 11:31:13;;;;;;;5.03;4.53;;;;;;;;;;5091608;28;20202;-61
2021/07/28 11:33:41;;;;;;;4.43;4.03;;;;;;;;;;5088749;28;20206;-61
2021/07/28 11:36:09;;;;;;;5.17;4.50;;;;;;;;;;5096395;28;20291;-63
2021/07/28 11:38:38;;;;;;;4.17;3.77;;;;;;;;;;5094916;28;20214;-64
2021/07/28 11:41:06;;;;;;;5.07;4.57;;;;;;;;;;5080930;28;20231;-61
2021/07/28 11:43:38;;;;;;;5.13;4.63;;;;;;;;;;5085069;28;20294;-63
2021/07/28 11:46:12;;;;;;;6.83;3.77;;;;;;;;;;5080925;28;20226;-63
2021/07/28 11:48:44;;;;;;;4.77;3.87;;;;;;;;;;5090827;28;20206;-64
2021/07/28 11:51:12;;;;;;;5.00;4.27;;;;;;;;;;5090842;28;20215;-64
2021/07/28 11:53:40;;;;;;;4.90;3.80;;;;;;;;;;5097665;28;20204;-64
2021/07/28 11:56:09;;;;;;;4.17;3.77;;;;;;;;;;5101318;28;20247;-64
2021/07/28 11:58:41;;;;;;;4.43;4.03;;;;;;;;;;5086666;28;20261;-64
2021/07/28 12:01:19;;;;;;;5.07;4.17;;;;;;;;;;5091764;28;20718;-63
2021/07/28 12:03:49;;;;;;;4.13;3.73;;;;;;;;;;5090231;28;20622;-63
2021/07/28 12:06:28;;;;;;;5.63;3.90;;;;;;;;;;5089683;28;20566;-64
2021/07/28 12:09:07;;;;;;;5.77;4.43;;;;;;;;;;5107063;28;20196;-64
2021/07/28 12:11:45;;;;;;;5.67;5.10;;;;;;;;;;5091120;28;20694;-64
2021/07/28 12:14:22;;;;;;;4.10;3.70;;;;;;;;;;5106713;28;20206;-63
2021/07/28 12:16:50;;;;;;;6.97;4.37;;;;;;;;;;5111672;28;20193;-64
2021/07/28 12:19:24;;;;;;;4.50;3.60;;;;;;;;;;5087992;28;20203;-63
2021/07/28 12:21:53;;;;;;;4.73;4.23;;;;;;;;;;5103446;28;20310;-64
2021/07/28 12:24:30;;;;;;;4.17;3.77;;;;;;;;;;5095015;28;20217;-64
2021/07/28 12:27:18;;;;;;;4.73;4.33;;;;;;;;;;5106148;28;20309;-64
2021/07/28 12:29:56;;;;;;;4.23;3.67;;;;;;;;;;5104555;28;20195;-64
2021/07/28 12:32:33;;;;;;;5.73;4.00;;;;;;;;;;5104265;28;20220;-64
2021/07/28 12:35:03;;;;;;;4.20;3.80;;;;;;;;;;5105395;28;20211;-64
2021/07/28 12:37:31;;;;;;;3.93;3.53;;;;;;;;;;5108942;28;20203;-64
2021/07/28 12:40:00;;;;;;;4.60;3.97;;;;;;;;;;5103366;28;20248;-62
2021/07/28 12:42:30;;;;;;;4.30;3.90;;;;;;;;;;5104193;28;20233;-62
2021/07/28 12:44:59;;;;;;;4.53;3.63;;;;;;;;;;5101280;28;20283;-63
2021/07/28 12:47:27;;;;;;;4.80;3.87;;;;;;;;;;5099632;28;20306;-64
2021/07/28 12:49:55;;;;;;;6.13;4.30;;;;;;;;;;5088332;28;20219;-64
2021/07/28 12:52:25;;;;;;;4.60;3.93;;;;;;;;;;5099378;28;20581;-63
2021/07/28 12:54:52;;;;;;;4.63;4.23;;;;;;;;;;5110573;28;20208;-63
2021/07/28 12:57:21;;;;;;;4.70;3.50;;;;;;;;;;5079545;28;20212;-63
2021/07/28 12:59:48;;;;;;;4.00;3.60;;;;;;;;;;5085255;28;20237;-64
2021/07/28 13:02:17;;;;;;;5.20;4.17;;;;;;;;;;5089840;28;20229;-63
2021/07/28 13:04:45;;;;;;;4.20;3.80;;;;;;;;;;5101812;28;20200;-63
2021/07/28 13:07:17;;;;;;;4.70;4.30;;;;;;;;;;5116395;28;20602;-62
2021/07/28 13:09:46;;;;;;;5.70;4.00;;;;;;;;;;5089133;28;20218;-63
2021/07/28 13:12:19;;;;;;;7.23;4.43;;;;;;;;;;5090597;28;20597;-63
2021/07/28 13:14:47;;;;;;;4.17;3.77;;;;;;;;;;5078723;28;20212;-63
2021/07/28 13:17:16;;;;;;;5.63;3.60;;;;;;;;;;5089835;28;20321;-63
2021/07/28 13:19:44;;;;;;;4.50;3.53;;;;;;;;;;5086341;28;20288;-63
2021/07/28 13:22:12;;;;;;;3.93;3.63;;;;;;;;;;5092014;28;20223;-63
2021/07/28 13:24:40;;;;;;;4.80;4.10;;;;;;;;;;5093442;28;20226;-63
2021/07/28 13:27:09;;;;;;;6.67;4.10;;;;;;;;;;5099374;28;20225;-63
2021/07/28 13:29:37;;;;;;;8.43;4.07;;;;;;;;;;5093561;28;20661;-64
2021/07/28 13:32:05;;;;;;;4.10;3.67;;;;;;;;;;5093650;28;20230;-64
2021/07/28 13:34:33;;;;;;;3.60;3.27;;;;;;;;;;5078677;28;20225;-63
2021/07/28 13:37:01;;;;;;;4.23;3.83;;;;;;;;;;5083719;28;20204;-63
2021/07/28 13:39:29;;;;;;;5.50;3.77;;;;;;;;;;5079760;28;20234;-63
2021/07/28 13:41:57;;;;;;;5.23;3.40;;;;;;;;;;5097404;28;20325;-64
2021/07/28 13:44:27;;;;;;;4.20;3.80;;;;;;;;;;5084695;28;20212;-64
2021/07/28 13:46:57;;;;;;;4.17;3.77;;;;;;;;;;5090967;28;20225;-62
2021/07/28 13:49:26;;;;;;;4.97;4.53;;;;;;;;;;5095217;28;20204;-64
2021/07/28 13:51:53;;;;;;;4.90;3.90;;;;;;;;;;5099654;28;20228;-64
2021/07/28 13:54:21;;;;;;;4.23;3.83;;;;;;;;;;5097051;28;20216;-64
2021/07/28 13:57:07;;;;;;;3.87;3.57;;;;;;;;;;5097259;28;20210;-64
2021/07/28 13:59:36;;;;;;;4.17;3.77;;;;;;;;;;5094538;28;20202;-63
2021/07/28 14:02:05;;;;;;;4.30;3.63;;;;;;;;;;5097751;28;20229;-62
2021/07/28 14:04:33;;;;;;;5.47;3.43;;;;;;;;;;5095378;28;20567;-62
2021/07/28 14:07:01;;;;;;;4.17;3.73;;;;;;;;;;5095947;28;20220;-62
2021/07/28 14:09:29;;;;;;;4.70;3.53;;;;;;;;;;5093965;28;20205;-62
2021/07/28 14:11:58;;;;;;;4.50;3.80;;;;;;;;;;5091707;28;20245;-62
2021/07/28 14:14:26;;;;;;;4.03;3.63;;;;;;;;;;5098643;28;20287;-62
2021/07/28 14:16:55;;;;;;;4.17;3.77;;;;;;;;;;5090257;28;20241;-62
2021/07/28 14:19:25;;;;;;;3.83;3.43;;;;;;;;;;5096724;28;20721;-62
2021/07/28 14:21:53;;;;;;;5.93;4.17;;;;;;;;;;5093839;28;20226;-62
2021/07/28 14:24:20;;;;;;;3.80;3.50;;;;;;;;;;5094558;28;20197;-62
2021/07/28 14:26:48;;;;;;;5.17;3.87;;;;;;;;;;5095909;28;20225;-64
2021/07/28 14:29:17;;;;;;;4.50;4.13;;;;;;;;;;5095160;28;20215;-61
2021/07/28 14:31:45;;;;;;;3.87;3.13;;;;;;;;;;5097918;28;20238;-62
2021/07/28 14:34:14;;;;;;;3.67;3.37;;;;;;;;;;5095618;28;20212;-63
2021/07/28 14:36:42;;;;;;;5.10;4.17;;;;;;;;;;5080586;28;20198;-61
2021/07/28 14:39:10;;;;;;;4.60;4.00;;;;;;;;;;5089101;28;20596;-61
2021/07/28 14:41:38;;;;;;;6.83;3.97;;;;;;;;;;5097635;28;20245;-60
2021/07/28 14:44:06;;;;;;;3.93;3.30;;;;;;;;;;5077617;28;22776;-61
2021/07/28 14:46:35;;;;;;;3.83;3.43;;;;;;;;;;5084184;28;20581;-60
2021/07/28 14:49:05;;;;;;;3.70;3.40;;;;;;;;;;5091728;28;20292;-60
2021/07/28 14:51:36;;;;;;;3.37;3.07;;;;;;;;;;5096668;28;20228;-60
2021/07/28 14:54:04;;;;;;;5.50;3.53;;;;;;;;;;5084804;28;20200;-59
2021/07/28 14:56:33;;;;;;;5.00;3.50;;;;;;;;;;5092035;28;20207;-60